createdAt,value
2019-05-14T00:01:31.768Z,59.05
2019-05-14T00:04:02.275Z,59.90
2019-05-14T00:06:33.105Z,60.95
2019-05-14T00:09:04.491Z,63.04
2019-05-14T00:11:35.153Z,63.29
2019-05-14T00:14:06.691Z,64.11
2019-05-14T00:16:37.379Z,64.30
2019-05-14T00:19:08.011Z,64.12
2019-05-14T00:21:38.650Z,64.60
2019-05-14T00:24:11.285Z,63.74
2019-05-14T00:26:42.657Z,65.23
2019-05-14T00:29:14.168Z,65.27
2019-05-14T00:31:46.519Z,65.41
2019-05-14T00:34:16.980Z,65.53
2019-05-14T00:36:47.731Z,65.83
2019-05-14T00:39:18.394Z,64.76
2019-05-14T00:41:51.262Z,65.72
2019-05-14T00:44:22.796Z,66.15
2019-05-14T00:46:53.315Z,67.97
2019-05-14T00:49:23.910Z,67.54
2019-05-14T00:51:55.345Z,65.89
2019-05-14T00:54:25.819Z,66.01
2019-05-14T00:56:57.113Z,66.34
2019-05-14T00:59:27.581Z,63.56
2019-05-14T01:01:58.868Z,66.61
2019-05-14T01:04:31.666Z,67.36
2019-05-14T01:07:02.689Z,67.70
2019-05-14T01:09:34.096Z,67.78
2019-05-14T01:12:04.661Z,68.21
2019-05-14T01:14:35.260Z,67.33
2019-05-14T01:17:06.676Z,65.89
2019-05-14T01:19:37.116Z,66.15
2019-05-14T01:22:09.299Z,66.16
2019-05-14T01:24:41.633Z,66.93
2019-05-14T01:27:12.625Z,66.68
2019-05-14T01:29:43.818Z,65.13
2019-05-14T01:32:14.239Z,65.89
2019-05-14T01:34:44.782Z,66.76
2019-05-14T01:37:15.241Z,65.18
2019-05-14T01:39:45.759Z,66.28
2019-05-14T01:42:17.020Z,65.13
2019-05-14T01:44:47.392Z,66.10
2019-05-14T01:47:18.700Z,66.60
2019-05-14T01:49:51.511Z,66.51
2019-05-14T01:52:22.177Z,66.57
2019-05-14T01:54:52.761Z,65.69
2019-05-14T01:57:23.257Z,65.09
2019-05-14T01:59:53.722Z,64.92
2019-05-14T02:02:25.182Z,64.14
2019-05-14T02:04:55.881Z,66.11
2019-05-14T02:07:26.401Z,66.97
2019-05-14T02:09:56.955Z,67.52
2019-05-14T02:12:27.435Z,66.06
2019-05-14T02:14:59.011Z,66.57
2019-05-14T02:17:31.802Z,65.29
2019-05-14T02:20:03.126Z,65.86
2019-05-14T02:22:33.703Z,66.15
2019-05-14T02:25:04.431Z,66.44
2019-05-14T02:27:37.483Z,66.15
2019-05-14T02:30:08.839Z,66.21
2019-05-14T02:32:40.945Z,66.12
2019-05-14T02:35:12.987Z,66.92
2019-05-14T02:37:43.550Z,66.66
2019-05-14T02:40:15.712Z,66.27
2019-05-14T02:42:49.434Z,66.73
2019-05-14T02:45:20.027Z,67.42
2019-05-14T02:47:50.736Z,65.97
2019-05-14T02:50:21.367Z,66.09
2019-05-14T02:52:51.945Z,66.45
2019-05-14T02:55:23.454Z,67.12
2019-05-14T02:57:54.053Z,66.50
2019-05-14T03:00:24.657Z,66.61
2019-05-14T03:02:55.254Z,66.86
2019-05-14T03:05:25.882Z,66.50
2019-05-14T03:07:59.910Z,66.77
2019-05-14T03:10:30.797Z,66.94
2019-05-14T03:13:01.252Z,65.35
2019-05-14T03:15:31.778Z,67.54
2019-05-14T03:18:02.415Z,68.61
2019-05-14T03:20:33.235Z,68.99
2019-05-14T03:23:09.038Z,69.04
2019-05-14T03:25:36.363Z,69.63
2019-05-14T03:28:09.292Z,70.51
2019-05-14T03:30:42.357Z,69.25
2019-05-14T03:33:13.190Z,64.59
2019-05-14T03:35:50.087Z,65.66
2019-05-14T03:38:15.487Z,66.06
2019-05-14T03:40:49.132Z,65.55
2019-05-14T03:43:19.814Z,66.08
2019-05-14T03:45:50.103Z,65.20
2019-05-14T03:48:20.405Z,65.20
2019-05-14T03:50:50.873Z,66.42
2019-05-14T03:53:21.409Z,64.06
2019-05-14T03:55:51.878Z,67.72
2019-05-14T03:58:22.379Z,66.54
2019-05-14T04:01:00.908Z,64.84
2019-05-14T04:03:32.911Z,64.37
2019-05-14T04:06:04.087Z,63.54
2019-05-14T04:08:38.959Z,63.54
2019-05-14T04:11:10.105Z,63.49
2019-05-14T04:13:42.588Z,64.21
2019-05-14T04:16:15.408Z,63.95
2019-05-14T04:18:50.441Z,61.22
2019-05-14T04:21:22.732Z,61.80
2019-05-14T04:23:53.996Z,62.62
2019-05-14T04:26:24.597Z,62.34
2019-05-14T04:29:00.209Z,62.16
2019-05-14T04:31:32.444Z,61.63
2019-05-14T04:34:05.539Z,59.74
2019-05-14T04:36:39.030Z,61.19
2019-05-14T04:39:09.665Z,61.10
2019-05-14T04:41:40.286Z,60.92
2019-05-14T04:44:11.171Z,62.18
2019-05-14T04:46:41.744Z,60.09
2019-05-14T04:49:12.263Z,61.81
2019-05-14T04:51:42.703Z,60.26
2019-05-14T04:54:13.128Z,60.40
2019-05-14T04:56:44.594Z,59.73
2019-05-14T04:59:15.098Z,59.38
2019-05-14T05:01:48.989Z,58.35
2019-05-14T05:04:20.200Z,58.52
2019-05-14T05:06:50.247Z,56.81
2019-05-14T05:09:21.002Z,57.62
2019-05-14T05:11:51.834Z,57.20
2019-05-14T05:14:23.896Z,55.76
2019-05-14T05:16:54.760Z,56.27
2019-05-14T05:19:25.434Z,55.75
2019-05-14T05:21:58.548Z,54.98
2019-05-14T05:24:28.921Z,53.97
2019-05-14T05:26:59.650Z,53.77
2019-05-14T05:29:30.205Z,53.72
2019-05-14T05:32:00.920Z,53.51
2019-05-14T05:34:31.486Z,54.10
2019-05-14T05:37:01.805Z,54.35
2019-05-14T05:39:32.182Z,53.02
2019-05-14T05:42:02.708Z,53.53
2019-05-14T05:44:32.948Z,52.95
2019-05-14T05:47:03.299Z,52.87
2019-05-14T05:49:33.792Z,53.01
2019-05-14T05:52:04.320Z,50.81
2019-05-14T05:54:34.787Z,49.66
2019-05-14T06:05:08.063Z,49.82
2019-05-14T06:07:39.626Z,47.83
2019-05-14T06:10:10.765Z,48.91
2019-05-14T06:12:41.429Z,47.40
2019-05-14T06:15:14.389Z,47.98
2019-05-14T06:17:45.261Z,46.72
2019-05-14T06:20:16.256Z,45.87
2019-05-14T06:22:48.943Z,45.70
2019-05-14T06:25:21.158Z,46.70
2019-05-14T06:27:52.081Z,46.53
2019-05-14T06:30:39.608Z,47.24
2019-05-14T06:33:09.838Z,46.69
2019-05-14T06:35:40.582Z,45.37
2019-05-14T06:38:11.297Z,44.94
2019-05-14T06:40:41.940Z,45.13
2019-05-14T06:43:12.612Z,45.34
2019-05-14T06:45:43.346Z,44.86
2019-05-14T06:48:26.895Z,43.56
2019-05-14T06:50:46.500Z,44.16
2019-05-14T06:53:19.475Z,43.22
2019-05-14T06:55:49.723Z,43.12
2019-05-14T06:58:20.635Z,42.51
2019-05-14T07:00:51.372Z,41.98
2019-05-14T07:03:22.113Z,42.80
2019-05-14T07:05:52.864Z,41.24
2019-05-14T07:08:23.514Z,40.18
2019-05-14T07:10:54.316Z,39.14
2019-05-14T07:13:24.979Z,39.32
2019-05-14T07:15:58.178Z,40.59
2019-05-14T07:18:33.341Z,39.42
2019-05-14T07:21:00.718Z,37.33
2019-05-14T07:23:31.435Z,36.95
2019-05-14T07:26:02.146Z,35.89
2019-05-14T07:28:32.881Z,38.11
2019-05-14T07:31:03.587Z,37.53
2019-05-14T07:33:34.302Z,35.27
2019-05-14T07:36:05.046Z,35.05
2019-05-14T07:38:38.639Z,35.76
2019-05-14T07:41:09.184Z,35.37
2019-05-14T07:43:40.288Z,35.85
2019-05-14T07:46:11.061Z,35.10
2019-05-14T07:48:41.820Z,36.41
2019-05-14T07:51:12.517Z,38.49
2019-05-14T07:53:43.204Z,37.80
2019-05-14T07:56:13.900Z,39.33
2019-05-14T07:58:45.112Z,40.60
2019-05-14T08:01:15.827Z,41.21
2019-05-14T08:03:48.547Z,42.95
2019-05-14T08:06:19.268Z,44.68
2019-05-14T08:08:50.255Z,42.96
2019-05-14T08:11:24.830Z,43.89
2019-05-14T08:13:55.574Z,43.54
2019-05-14T08:16:28.795Z,44.22
2019-05-14T08:19:00.520Z,44.82
2019-05-14T08:21:31.341Z,42.67
2019-05-14T08:24:02.009Z,41.36
2019-05-14T08:26:32.683Z,40.64
2019-05-14T08:29:03.332Z,38.14
2019-05-14T08:31:34.022Z,36.92
2019-05-14T08:34:06.075Z,37.74
2019-05-14T08:36:38.168Z,37.95
2019-05-14T08:39:09.159Z,38.04
2019-05-14T08:41:39.815Z,37.66
2019-05-14T08:44:10.512Z,38.33
2019-05-14T08:46:41.168Z,38.56
2019-05-14T08:49:11.944Z,38.83
2019-05-14T08:51:42.597Z,38.48
2019-05-14T08:54:13.317Z,38.57
2019-05-14T08:56:44.464Z,37.63
2019-05-14T08:59:16.174Z,36.41
2019-05-14T09:02:00.889Z,35.36
2019-05-14T09:04:22.322Z,34.96
2019-05-14T09:06:51.703Z,34.47
2019-05-14T09:09:22.523Z,33.95
2019-05-14T09:11:53.153Z,33.04
2019-05-14T09:14:23.887Z,32.62
2019-05-14T09:16:54.732Z,33.54
2019-05-14T09:19:25.570Z,31.63
2019-05-14T09:21:58.638Z,31.42
2019-05-14T09:24:29.383Z,31.30
2019-05-14T09:27:00.267Z,31.12
2019-05-14T09:29:30.926Z,30.68
2019-05-14T09:32:01.794Z,30.62
2019-05-14T09:34:32.480Z,29.87
2019-05-14T09:37:03.093Z,30.61
2019-05-14T09:39:33.811Z,28.49
2019-05-14T09:42:04.620Z,28.44
2019-05-14T09:44:35.496Z,29.24
2019-05-14T09:47:08.595Z,29.30
2019-05-14T09:49:39.089Z,27.24
2019-05-14T09:52:09.876Z,27.35
2019-05-14T09:54:43.943Z,27.99
2019-05-14T09:57:14.899Z,27.94
2019-05-14T09:59:47.827Z,27.97
2019-05-14T10:02:20.877Z,27.60
2019-05-14T10:04:53.489Z,27.16
2019-05-14T10:07:24.763Z,26.53
2019-05-14T10:09:59.844Z,26.50
2019-05-14T10:12:30.625Z,28.28
2019-05-14T10:15:01.292Z,30.65
2019-05-14T10:17:39.300Z,33.79
2019-05-14T10:20:10.459Z,33.38
2019-05-14T10:22:41.108Z,35.68
2019-05-14T10:25:11.910Z,36.40
2019-05-14T10:27:42.642Z,35.16
2019-05-14T10:30:13.647Z,30.79
2019-05-14T10:32:44.375Z,31.98
2019-05-14T10:35:15.153Z,32.09
2019-05-14T10:37:45.817Z,31.49
2019-05-14T10:40:18.364Z,32.25
2019-05-14T10:42:49.623Z,32.42
2019-05-14T10:45:20.507Z,34.75
2019-05-14T10:47:51.201Z,36.55
2019-05-14T10:50:21.926Z,37.34
2019-05-14T10:52:52.677Z,35.61
2019-05-14T10:55:23.324Z,33.26
2019-05-14T10:57:54.485Z,32.13
2019-05-14T11:00:28.245Z,32.76
2019-05-14T11:02:58.351Z,30.44
2019-05-14T11:05:29.052Z,27.58
2019-05-14T11:07:59.833Z,26.97
2019-05-14T11:10:30.572Z,27.54
2019-05-14T11:13:01.257Z,27.36
2019-05-14T11:15:31.977Z,26.75
2019-05-14T11:18:02.698Z,26.46
2019-05-14T11:20:33.443Z,25.52
2019-05-14T11:23:04.249Z,25.96
2019-05-14T11:25:34.959Z,24.71
2019-05-14T11:28:05.604Z,24.95
2019-05-14T11:30:36.387Z,24.19
2019-05-14T11:33:09.109Z,23.05
2019-05-14T11:35:39.655Z,23.29
2019-05-14T11:38:28.042Z,23.78
2019-05-14T11:40:42.869Z,23.26
2019-05-14T11:43:13.604Z,21.36
2019-05-14T11:45:44.453Z,24.05
2019-05-14T11:48:15.135Z,26.54
2019-05-14T11:50:48.881Z,29.12
2019-05-14T11:53:19.789Z,30.84
2019-05-14T11:55:50.735Z,30.92
2019-05-14T11:58:21.644Z,31.18
2019-05-14T12:00:52.360Z,28.17
2019-05-14T12:03:23.058Z,27.03
2019-05-14T12:05:53.789Z,25.81
2019-05-14T12:08:24.495Z,24.15
2019-05-14T12:10:55.231Z,23.20
2019-05-14T12:13:30.067Z,20.24
2019-05-14T12:15:59.056Z,20.19
2019-05-14T12:18:30.053Z,19.81
2019-05-14T12:21:02.155Z,19.50
2019-05-14T12:23:32.838Z,20.28
2019-05-14T12:26:03.697Z,19.55
2019-05-14T12:28:38.620Z,18.86
2019-05-14T12:31:09.351Z,20.63
2019-05-14T12:33:40.494Z,19.81
2019-05-14T12:36:11.177Z,20.18
2019-05-14T12:38:41.921Z,19.99
2019-05-14T12:41:12.682Z,19.12
2019-05-14T12:43:44.019Z,17.38
2019-05-14T12:46:15.024Z,18.12
2019-05-14T12:48:45.653Z,17.05
2019-05-14T12:51:18.549Z,16.66
2019-05-14T12:53:49.047Z,19.34
2019-05-14T12:56:19.719Z,21.98
2019-05-14T12:58:50.990Z,24.24
2019-05-14T13:01:21.647Z,27.59
2019-05-14T13:03:52.325Z,28.87
2019-05-14T13:06:23.005Z,24.87
2019-05-14T13:08:53.686Z,22.41
2019-05-14T13:11:24.506Z,21.66
2019-05-14T13:13:55.268Z,22.55
2019-05-14T13:16:28.320Z,25.20
2019-05-14T13:18:59.877Z,27.18
2019-05-14T13:21:30.836Z,30.53
2019-05-14T13:24:01.586Z,31.22
2019-05-14T13:26:32.319Z,31.73
2019-05-14T13:29:07.327Z,29.14
2019-05-14T13:31:35.455Z,25.73
2019-05-14T13:34:08.722Z,22.43
2019-05-14T13:36:40.105Z,21.08
2019-05-14T13:39:11.255Z,20.63
2019-05-14T13:41:42.214Z,19.75
2019-05-14T13:44:21.140Z,19.57
2019-05-14T13:46:45.361Z,22.60
2019-05-14T13:49:18.867Z,22.83
2019-05-14T13:51:49.045Z,24.44
2019-05-14T13:54:19.898Z,25.52
2019-05-14T13:56:50.629Z,25.80
2019-05-14T13:59:21.280Z,30.01
2019-05-14T14:01:54.793Z,33.15
2019-05-14T14:04:24.318Z,35.36
2019-05-14T14:06:55.142Z,35.51
2019-05-14T14:09:28.346Z,36.85
2019-05-14T14:11:59.237Z,37.41
2019-05-14T14:14:29.919Z,36.82
2019-05-14T14:17:02.008Z,36.30
2019-05-14T14:19:32.708Z,36.48
2019-05-14T14:22:03.455Z,38.15
2019-05-14T14:24:34.151Z,43.06
2019-05-14T14:27:04.862Z,42.28
2019-05-14T14:29:35.515Z,44.81
2019-05-14T14:32:11.115Z,47.86
2019-05-14T14:34:41.282Z,48.74
2019-05-14T14:37:12.305Z,49.80
2019-05-14T14:39:43.304Z,46.64
2019-05-14T14:42:14.459Z,45.73
2019-05-14T14:44:45.190Z,45.47
2019-05-14T14:47:15.879Z,46.73
2019-05-14T14:49:51.168Z,47.53
2019-05-14T14:52:20.112Z,45.25
2019-05-14T14:54:50.979Z,43.64
2019-05-14T14:57:21.671Z,43.54
2019-05-14T14:59:56.174Z,43.11
2019-05-14T15:02:28.922Z,39.51
2019-05-14T15:05:00.635Z,40.14
2019-05-14T15:07:40.834Z,40.14
2019-05-14T15:10:11.230Z,40.30
2019-05-14T15:12:45.113Z,35.58
2019-05-14T15:15:18.803Z,38.74
2019-05-14T15:17:49.811Z,40.82
2019-05-14T15:20:44.000Z,41.24
2019-05-14T15:23:14.984Z,43.29
2019-05-14T15:25:46.101Z,45.63
2019-05-14T15:28:18.968Z,48.74
2019-05-14T15:30:50.148Z,50.39
2019-05-14T15:33:21.241Z,48.28
2019-05-14T15:35:52.178Z,48.58
2019-05-14T15:38:22.556Z,48.59
2019-05-14T15:40:53.016Z,48.90
2019-05-14T15:43:23.468Z,43.96
2019-05-14T15:45:53.891Z,43.94
2019-05-14T15:48:24.352Z,45.27
2019-05-14T15:50:54.896Z,43.97
2019-05-14T15:53:25.559Z,44.10
2019-05-14T15:55:56.101Z,42.50
2019-05-14T15:58:29.916Z,43.55
2019-05-14T16:01:01.230Z,42.26
2019-05-14T16:03:30.983Z,41.78
2019-05-14T16:06:01.402Z,43.58
2019-05-14T16:08:31.851Z,43.50
2019-05-14T16:11:05.401Z,44.78
2019-05-14T16:13:34.795Z,45.35
2019-05-14T16:16:05.484Z,44.59
2019-05-14T16:18:38.455Z,43.86
2019-05-14T16:21:10.560Z,43.29
2019-05-14T16:23:40.847Z,41.74
2019-05-14T16:26:11.290Z,40.23
2019-05-14T16:28:41.770Z,39.24
2019-05-14T16:31:12.145Z,39.85
2019-05-14T16:33:42.602Z,39.43
2019-05-14T16:36:13.069Z,38.24
2019-05-14T16:38:43.570Z,36.85
2019-05-14T16:41:14.185Z,37.03
2019-05-14T16:43:44.449Z,36.57
2019-05-14T16:46:14.930Z,38.72
2019-05-14T16:48:45.357Z,40.28
2019-05-14T16:51:18.945Z,42.12
2019-05-14T16:53:48.811Z,42.63
2019-05-14T16:56:19.499Z,44.60
2019-05-14T16:58:49.883Z,45.42
2019-05-14T17:01:20.329Z,46.52
2019-05-14T17:03:50.706Z,49.99
2019-05-14T17:06:21.265Z,47.49
2019-05-14T17:08:51.738Z,46.35
2019-05-14T17:11:22.185Z,45.87
2019-05-14T17:13:52.868Z,45.18
2019-05-14T17:16:23.400Z,44.59
2019-05-14T17:18:53.934Z,43.55
2019-05-14T17:21:24.467Z,43.87
2019-05-14T17:23:55.051Z,42.90
2019-05-14T17:26:25.554Z,43.75
2019-05-14T17:28:56.117Z,44.37
2019-05-14T17:31:26.552Z,45.38
2019-05-14T17:33:58.453Z,46.85
2019-05-14T17:36:28.897Z,48.06
2019-05-14T17:39:00.583Z,46.67
2019-05-14T17:41:31.222Z,47.04
2019-05-14T17:44:01.672Z,47.73
2019-05-14T17:46:32.008Z,47.55
2019-05-14T17:49:02.525Z,48.70
2019-05-14T17:51:32.891Z,49.51
2019-05-14T17:54:03.396Z,49.41
2019-05-14T17:56:33.821Z,49.37
2019-05-14T17:59:04.276Z,50.00
2019-05-14T18:01:34.653Z,51.26
2019-05-14T18:04:04.975Z,50.54
2019-05-14T18:06:35.416Z,50.85
2019-05-14T18:09:09.086Z,51.64
2019-05-14T18:11:40.233Z,52.55
2019-05-14T18:14:11.893Z,49.81
2019-05-14T18:16:42.514Z,51.71
2019-05-14T18:19:12.874Z,52.94
2019-05-14T18:21:43.272Z,53.40
2019-05-14T18:24:14.651Z,51.88
2019-05-14T18:26:45.007Z,52.53
2019-05-14T18:29:15.427Z,52.83
2019-05-14T18:31:46.025Z,52.01
2019-05-14T18:34:18.953Z,52.59
2019-05-14T18:36:49.478Z,52.75
2019-05-14T18:39:21.004Z,52.70
2019-05-14T18:41:51.870Z,53.28
2019-05-14T18:44:22.292Z,53.83
2019-05-14T18:46:52.780Z,53.68
2019-05-14T18:49:23.353Z,53.78
2019-05-14T18:51:53.828Z,53.99
2019-05-14T18:54:24.270Z,54.02
2019-05-14T18:56:54.732Z,54.44
2019-05-14T18:59:25.166Z,55.50
2019-05-14T19:01:55.505Z,56.41
2019-05-14T19:04:27.856Z,56.50
2019-05-14T19:06:59.078Z,56.50
2019-05-14T19:09:30.288Z,56.65
2019-05-14T19:12:00.666Z,57.06
2019-05-14T19:14:31.429Z,58.00
2019-05-14T19:17:01.875Z,58.29
2019-05-14T19:19:32.510Z,59.67
2019-05-14T19:22:03.257Z,61.05
2019-05-14T19:24:33.902Z,63.32
2019-05-14T19:27:04.374Z,64.05
2019-05-14T19:29:34.915Z,64.46
2019-05-14T19:32:08.134Z,63.95
2019-05-14T19:34:38.279Z,65.09
2019-05-14T19:37:08.873Z,64.60
2019-05-14T19:39:39.583Z,64.81
2019-05-14T19:42:10.120Z,64.77
2019-05-14T19:44:40.850Z,64.70
2019-05-14T19:47:11.685Z,64.49
2019-05-14T19:49:42.304Z,64.50
2019-05-14T19:52:13.346Z,64.39
2019-05-14T19:54:43.866Z,64.21
2019-05-14T19:57:14.333Z,63.64
2019-05-14T19:59:45.040Z,64.28
2019-05-14T20:02:18.378Z,64.02
2019-05-14T20:04:49.292Z,63.99
2019-05-14T20:07:19.915Z,64.49
2019-05-14T20:09:50.730Z,64.89
2019-05-14T20:12:21.921Z,65.20
2019-05-14T20:14:52.468Z,65.44
2019-05-14T20:17:23.190Z,64.76
2019-05-14T20:19:53.756Z,65.73
2019-05-14T20:22:24.249Z,65.95
2019-05-14T20:24:55.517Z,66.43
2019-05-14T20:27:28.305Z,66.49
2019-05-14T20:29:59.644Z,66.52
2019-05-14T20:32:30.270Z,66.47
2019-05-14T20:35:00.782Z,66.30
2019-05-14T20:37:33.778Z,66.29
2019-05-14T20:40:04.268Z,66.50
2019-05-14T20:42:39.155Z,66.53
2019-05-14T20:45:09.695Z,66.00
2019-05-14T20:47:40.190Z,66.54
2019-05-14T20:50:11.107Z,66.60
2019-05-14T20:52:42.785Z,65.75
2019-05-14T20:55:13.393Z,65.78
2019-05-14T20:57:43.986Z,64.59
2019-05-14T21:00:18.100Z,65.49
2019-05-14T21:02:48.024Z,65.11
2019-05-14T21:05:18.852Z,66.11
2019-05-14T21:07:49.477Z,66.19
2019-05-14T21:10:20.098Z,65.82
2019-05-14T21:12:50.702Z,65.66
2019-05-14T21:15:22.512Z,65.71
2019-05-14T21:17:53.080Z,65.35
2019-05-14T21:20:24.093Z,65.19
2019-05-14T21:22:54.997Z,64.84
2019-05-14T21:25:25.485Z,65.67
2019-05-14T21:27:58.480Z,65.85
2019-05-14T21:30:29.518Z,66.47
2019-05-14T21:33:00.673Z,66.59
2019-05-14T21:35:31.361Z,66.72
2019-05-14T21:38:01.922Z,66.71
2019-05-14T21:40:32.393Z,66.63
2019-05-14T21:43:02.969Z,65.84
2019-05-14T21:45:33.619Z,66.00
2019-05-14T21:48:04.153Z,66.32
2019-05-14T21:50:34.741Z,66.13
2019-05-14T21:53:05.328Z,66.25
2019-05-14T21:55:38.566Z,65.55
2019-05-14T21:58:09.163Z,65.48
2019-05-14T22:00:44.603Z,65.39
2019-05-14T22:03:15.194Z,65.55
2019-05-14T22:05:45.751Z,65.45
2019-05-14T22:08:16.169Z,65.46
2019-05-14T22:10:48.803Z,65.83
2019-05-14T22:13:19.032Z,65.11
2019-05-14T22:15:49.537Z,65.70
2019-05-14T22:18:20.830Z,65.68
2019-05-14T22:20:51.539Z,66.05
2019-05-14T22:23:22.189Z,65.36
2019-05-14T22:25:52.693Z,65.35
2019-05-14T22:28:23.207Z,66.07
2019-05-14T22:30:53.766Z,66.65
2019-05-14T22:33:24.312Z,66.54
2019-05-14T22:35:54.950Z,66.08
2019-05-14T22:38:25.518Z,65.80
2019-05-14T22:40:56.090Z,66.54
2019-05-14T22:43:28.836Z,66.37
2019-05-14T22:45:59.321Z,66.96
2019-05-14T22:48:29.901Z,66.86
2019-05-14T22:51:01.206Z,66.74
2019-05-14T22:53:31.741Z,66.59
2019-05-14T22:56:02.294Z,66.57
2019-05-14T22:58:32.789Z,67.00
2019-05-14T23:01:14.426Z,66.65
2019-05-14T23:03:35.754Z,66.37
2019-05-14T23:06:06.278Z,66.56
2019-05-14T23:08:38.936Z,66.40
2019-05-14T23:11:09.059Z,66.58
2019-05-14T23:13:39.633Z,66.67
2019-05-14T23:16:10.511Z,66.69
2019-05-14T23:18:41.057Z,66.30
2019-05-14T23:21:11.619Z,66.38
2019-05-14T23:23:42.215Z,66.39
2019-05-14T23:26:12.778Z,67.00
2019-05-14T23:28:45.816Z,66.76
2019-05-14T23:31:16.706Z,67.46
2019-05-14T23:33:49.036Z,67.36
2019-05-14T23:36:19.639Z,66.48
2019-05-14T23:38:50.760Z,67.43
2019-05-14T23:41:21.355Z,67.67
2019-05-14T23:43:51.902Z,67.26
2019-05-14T23:46:22.412Z,67.30
2019-05-14T23:48:53.940Z,67.28
2019-05-14T23:51:24.493Z,66.82
2019-05-14T23:53:55.025Z,66.84
2019-05-14T23:56:25.567Z,66.49
2019-05-14T23:59:01.383Z,66.99
